Time;durP1;ratioP1;P1;durP2;ratioP2;P2;SDS_P1;SDS_P2;PMS_P1;PMS_P2;Temp;Humidity;BMP_temperature;BMP_pressure;BME280_temperature;BME280_humidity;BME280_pressure;Samples;Min_cycle;Max_cycle;Signal;HPM_P1;HPM_P2
2021/03/01 00:02:08;;;;;;;24.93;17.83;;;4.20;99.90;;;;;;5075315;28;20180;-69
2021/03/01 00:04:33;;;;;;;35.13;20.98;;;4.10;99.90;;;;;;5075286;28;20437;-68
2021/03/01 00:06:59;;;;;;;36.50;23.30;;;4.20;99.90;;;;;;5075358;28;20512;-68
2021/03/01 00:09:25;;;;;;;34.77;23.90;;;4.20;99.90;;;;;;5073933;28;20205;-68
2021/03/01 00:11:50;;;;;;;48.07;27.23;;;4.20;99.90;;;;;;5075235;28;20200;-68
2021/03/01 00:14:16;;;;;;;40.40;26.80;;;4.10;99.90;;;;;;5073816;28;20250;-69
2021/03/01 00:16:42;;;;;;;37.80;26.70;;;4.00;99.90;;;;;;5073676;28;20181;-69
2021/03/01 00:19:07;;;;;;;38.50;24.03;;;3.60;99.90;;;;;;5075001;28;20221;-68
2021/03/01 00:21:33;;;;;;;34.70;24.30;;;3.60;99.90;;;;;;5073577;28;20209;-68
2021/03/01 00:23:59;;;;;;;36.20;22.85;;;3.90;99.90;;;;;;5073607;28;20197;-69
2021/03/01 00:26:25;;;;;;;32.77;22.40;;;3.90;99.90;;;;;;5074914;28;20203;-68
2021/03/01 00:28:50;;;;;;;30.97;21.40;;;3.80;99.90;;;;;;5074739;28;20243;-68
2021/03/01 00:31:16;;;;;;;36.20;23.27;;;3.90;99.90;;;;;;5074764;28;20192;-70
2021/03/01 00:33:41;;;;;;;35.40;23.40;;;3.60;99.90;;;;;;5075060;28;20185;-68
2021/03/01 00:36:07;;;;;;;35.10;22.40;;;3.60;99.90;;;;;;5074813;28;20216;-69
2021/03/01 00:38:33;;;;;;;33.43;22.60;;;3.70;99.90;;;;;;5075055;28;20646;-67
2021/03/01 00:40:58;;;;;;;38.27;23.67;;;3.70;99.90;;;;;;5073152;28;20244;-68
2021/03/01 00:43:28;;;;;;;39.00;22.57;;;3.70;99.90;;;;;;5074970;28;20220;-68
2021/03/01 00:45:53;;;;;;;34.35;23.90;;;3.40;99.90;;;;;;5073662;28;20177;-68
2021/03/01 00:48:19;;;;;;;39.30;24.87;;;3.20;99.90;;;;;;5074813;28;20685;-67
2021/03/01 00:50:45;;;;;;;35.97;25.23;;;3.40;99.90;;;;;;5074395;28;20174;-69
2021/03/01 00:53:19;;;;;;;33.30;23.50;;;3.50;99.90;;;;;;5074723;28;20650;-68
2021/03/01 00:55:45;;;;;;;34.13;22.58;;;3.10;99.90;;;;;;5074346;28;20165;-67
2021/03/01 00:58:10;;;;;;;34.60;23.40;;;3.20;99.90;;;;;;5073018;28;20209;-68
2021/03/01 01:00:36;;;;;;;38.17;22.57;;;3.20;99.90;;;;;;5072819;28;20217;-70
2021/03/01 01:03:01;;;;;;;33.70;21.77;;;3.40;99.90;;;;;;5073043;28;20205;-68
2021/03/01 01:05:27;;;;;;;30.03;21.17;;;3.20;99.90;;;;;;5074155;28;20173;-69
2021/03/01 01:07:53;;;;;;;35.47;20.60;;;3.40;99.90;;;;;;5074537;28;20549;-68
2021/03/01 01:10:18;;;;;;;25.97;18.27;;;3.50;99.90;;;;;;5074222;28;20181;-69
2021/03/01 01:12:44;;;;;;;33.10;21.87;;;3.50;99.90;;;;;;5074303;28;20183;-68
2021/03/01 01:15:11;;;;;;;28.10;19.07;;;3.40;99.90;;;;;;5074099;28;20268;-69
2021/03/01 01:17:36;;;;;;;28.92;19.50;;;3.00;99.90;;;;;;5074012;28;20173;-68
2021/03/01 01:20:10;;;;;;;32.23;20.07;;;3.30;99.90;;;;;;5074007;28;20300;-69
2021/03/01 01:22:36;;;;;;;28.33;18.67;;;3.00;99.90;;;;;;5073999;28;20264;-68
2021/03/01 01:25:03;;;;;;;30.33;19.60;;;3.10;99.90;;;;;;5072583;28;20628;-68
2021/03/01 01:27:29;;;;;;;26.15;19.30;;;3.10;99.90;;;;;;5073907;28;20227;-69
2021/03/01 01:29:55;;;;;;;30.90;19.77;;;3.10;99.90;;;;;;5073809;28;20194;-67
2021/03/01 01:32:20;;;;;;;34.17;22.00;;;3.20;99.90;;;;;;5072601;28;20173;-68
2021/03/01 01:34:46;;;;;;;37.53;22.37;;;3.30;99.90;;;;;;5073648;28;20208;-68
2021/03/01 01:37:12;;;;;;;31.63;21.95;;;3.20;99.90;;;;;;5072397;28;20181;-67
2021/03/01 01:39:38;;;;;;;35.10;22.30;;;3.10;99.90;;;;;;5073565;28;20342;-68
2021/03/01 01:42:03;;;;;;;29.07;20.40;;;2.90;99.90;;;;;;5073792;28;20265;-69
2021/03/01 01:44:29;;;;;;;32.03;19.50;;;3.00;99.90;;;;;;5072581;28;20208;-68
2021/03/01 01:46:55;;;;;;;27.50;19.53;;;2.90;99.90;;;;;;5073761;28;20169;-67
2021/03/01 01:49:20;;;;;;;28.77;18.50;;;3.00;99.90;;;;;;5073572;28;20201;-68
2021/03/01 01:51:46;;;;;;;26.83;17.93;;;3.10;99.90;;;;;;5073749;28;20219;-69
2021/03/01 01:54:12;;;;;;;30.27;20.20;;;3.20;99.90;;;;;;5073537;28;20400;-68
2021/03/01 01:56:40;;;;;;;28.60;19.47;;;3.00;99.90;;;;;;5074063;28;20264;-68
2021/03/01 01:59:06;;;;;;;26.90;19.77;;;2.90;99.90;;;;;;5077599;28;20227;-68
2021/03/01 02:01:32;;;;;;;33.38;20.65;;;2.70;99.90;;;;;;5077494;28;20239;-68
2021/03/01 02:04:20;;;;;;;30.23;20.40;;;2.90;99.90;;;;;;5077565;28;20193;-68
2021/03/01 02:06:56;;;;;;;27.60;18.48;;;2.90;99.90;;;;;;5077670;28;20200;-68
2021/03/01 02:09:33;;;;;;;28.55;19.35;;;2.90;99.90;;;;;;5077615;28;20283;-68
2021/03/01 02:12:22;;;;;;;32.67;19.17;;;2.70;99.90;;;;;;5077572;28;20699;-68
2021/03/01 02:14:57;;;;;;;25.80;17.83;;;2.80;99.90;;;;;;5076148;28;20603;-67
2021/03/01 02:17:23;;;;;;;28.48;18.13;;;2.90;99.90;;;;;;5077293;28;20175;-68
2021/03/01 02:19:48;;;;;;;27.43;17.70;;;2.90;99.90;;;;;;5075957;28;20217;-67
2021/03/01 02:22:14;;;;;;;26.43;17.30;;;2.90;99.90;;;;;;5077433;28;20177;-68
2021/03/01 02:24:47;;;;;;;28.67;17.87;;;2.80;99.90;;;;;;5075950;28;20197;-69
2021/03/01 02:27:18;;;;;;;29.58;17.73;;;2.60;99.90;;;;;;5076048;28;20177;-68
2021/03/01 02:29:45;;;;;;;30.05;17.60;;;2.70;99.90;;;;;;5077124;28;20205;-68
2021/03/01 02:32:12;;;;;;;24.25;16.95;;;2.90;99.90;;;;;;5077109;28;20592;-67
2021/03/01 02:34:39;;;;;;;25.92;18.98;;;2.90;99.90;;;;;;5076962;28;20718;-69
2021/03/01 02:37:09;;;;;;;25.90;17.58;;;2.90;99.90;;;;;;5075786;28;20212;-68
2021/03/01 02:39:37;;;;;;;28.45;17.05;;;2.80;99.90;;;;;;5075507;28;20233;-68
2021/03/01 02:42:05;;;;;;;26.98;17.17;;;2.70;99.90;;;;;;5076854;28;20212;-69
2021/03/01 02:44:31;;;;;;;26.35;17.85;;;2.60;99.90;;;;;;5076668;28;20283;-68
2021/03/01 02:46:59;;;;;;;25.63;17.75;;;2.60;99.90;;;;;;5076961;28;20180;-67
2021/03/01 02:49:26;;;;;;;26.40;18.55;;;2.50;99.90;;;;;;5075491;28;20236;-68
2021/03/01 02:51:52;;;;;;;32.28;21.23;;;2.30;99.90;;;;;;5075423;28;20180;-68
2021/03/01 02:54:20;;;;;;;27.58;19.15;;;2.30;99.90;;;;;;5076616;28;20200;-68
2021/03/01 02:56:48;;;;;;;25.25;19.83;;;2.20;99.90;;;;;;5075353;28;20185;-68
2021/03/01 02:59:15;;;;;;;31.42;20.33;;;2.10;99.90;;;;;;5076592;28;20204;-68
2021/03/01 03:01:42;;;;;;;28.63;18.27;;;2.00;99.90;;;;;;5075055;28;20256;-69
2021/03/01 03:04:09;;;;;;;27.38;18.92;;;2.20;99.90;;;;;;5075207;28;20205;-68
2021/03/01 03:06:37;;;;;;;28.45;19.35;;;2.30;99.90;;;;;;5076367;28;20643;-68
2021/03/01 03:09:07;;;;;;;29.02;18.77;;;2.40;99.90;;;;;;5073918;28;20197;-69
2021/03/01 03:11:33;;;;;;;28.55;18.33;;;2.50;99.90;;;;;;5075352;28;20177;-68
2021/03/01 03:14:00;;;;;;;27.88;17.92;;;2.60;99.90;;;;;;5076324;28;20197;-69
2021/03/01 03:16:27;;;;;;;35.88;18.88;;;2.60;99.90;;;;;;5076185;28;20579;-68
2021/03/01 03:18:54;;;;;;;27.73;17.52;;;2.50;99.90;;;;;;5076133;28;20219;-68
2021/03/01 03:21:21;;;;;;;29.35;18.02;;;2.40;99.90;;;;;;5075993;28;20232;-69
2021/03/01 03:23:47;;;;;;;26.92;18.65;;;2.30;99.90;;;;;;5076012;28;20196;-67
2021/03/01 03:26:13;;;;;;;26.33;16.73;;;2.40;99.90;;;;;;5076180;28;20252;-69
2021/03/01 03:28:43;;;;;;;29.55;18.55;;;2.20;99.90;;;;;;5074880;28;20232;-68
2021/03/01 03:31:10;;;;;;;26.25;17.73;;;1.90;99.90;;;;;;5075918;28;20181;-68
2021/03/01 03:33:41;;;;;;;27.17;19.73;;;2.00;99.90;;;;;;5076330;28;20204;-69
2021/03/01 03:36:08;;;;;;;27.48;18.88;;;2.20;99.90;;;;;;5075962;28;20162;-69
2021/03/01 03:38:47;;;;;;;28.42;19.20;;;2.20;99.90;;;;;;5076267;28;20229;-67
2021/03/01 03:41:14;;;;;;;26.55;17.73;;;2.20;99.90;;;;;;5074281;28;20260;-68
2021/03/01 03:43:42;;;;;;;32.83;18.85;;;2.30;99.90;;;;;;5076136;28;20197;-69
2021/03/01 03:46:10;;;;;;;23.45;17.70;;;2.20;99.90;;;;;;5075687;28;20264;-68
2021/03/01 03:48:37;;;;;;;27.70;17.95;;;2.20;99.90;;;;;;5074552;28;20205;-69
2021/03/01 03:51:05;;;;;;;27.08;17.60;;;2.30;99.90;;;;;;5075625;28;20172;-69
2021/03/01 03:53:37;;;;;;;21.85;16.30;;;2.20;99.90;;;;;;5076089;28;20674;-67
2021/03/01 03:56:04;;;;;;;27.70;17.33;;;2.30;99.90;;;;;;5075559;28;20291;-68
2021/03/01 03:58:33;;;;;;;23.00;16.27;;;2.30;99.90;;;;;;5074255;28;20205;-68
2021/03/01 04:01:01;;;;;;;25.98;17.98;;;2.30;99.90;;;;;;5075376;28;20682;-67
2021/03/01 04:03:29;;;;;;;26.02;16.23;;;2.40;99.90;;;;;;5074352;28;20197;-68
2021/03/01 04:05:57;;;;;;;27.50;17.38;;;2.30;99.90;;;;;;5075404;28;20635;-69
2021/03/01 04:08:26;;;;;;;21.48;15.85;;;2.40;99.90;;;;;;5075160;28;20208;-67
2021/03/01 04:10:53;;;;;;;26.58;17.55;;;2.30;99.90;;;;;;5075253;28;20173;-69
2021/03/01 04:13:22;;;;;;;26.70;17.23;;;2.30;99.90;;;;;;5075500;28;20205;-67
2021/03/01 04:15:48;;;;;;;28.23;17.15;;;2.30;99.90;;;;;;5073875;28;20173;-69
2021/03/01 04:18:26;;;;;;;24.70;17.13;;;2.20;99.90;;;;;;5073931;28;20208;-67
2021/03/01 04:20:55;;;;;;;26.33;16.30;;;2.20;99.90;;;;;;5074801;28;20219;-68
2021/03/01 04:23:22;;;;;;;30.58;18.17;;;2.00;99.90;;;;;;5073808;28;20288;-68
2021/03/01 04:25:50;;;;;;;25.13;16.25;;;2.10;99.90;;;;;;5074915;28;20165;-69
2021/03/01 04:28:18;;;;;;;23.45;15.68;;;2.10;99.90;;;;;;5075257;28;20201;-68
2021/03/01 04:30:47;;;;;;;27.67;16.65;;;2.10;99.90;;;;;;5074847;28;20176;-68
2021/03/01 04:33:14;;;;;;;25.88;16.13;;;1.70;99.90;;;;;;5075195;28;20193;-68
2021/03/01 04:35:41;;;;;;;26.52;16.77;;;1.50;99.90;;;;;;5074653;28;20181;-68
2021/03/01 04:38:06;;;;;;;23.02;15.55;;;1.40;99.90;;;;;;5074986;28;20220;-68
2021/03/01 04:40:32;;;;;;;29.43;17.20;;;1.50;99.90;;;;;;5074341;28;20283;-69
2021/03/01 04:42:59;;;;;;;25.33;16.40;;;1.60;99.90;;;;;;5073451;28;20197;-67
2021/03/01 04:45:25;;;;;;;27.27;17.38;;;1.70;99.90;;;;;;5074513;28;20223;-68
2021/03/01 04:47:51;;;;;;;30.10;18.30;;;1.10;99.90;;;;;;5074430;28;20203;-68
2021/03/01 04:50:18;;;;;;;32.58;18.20;;;1.30;99.90;;;;;;5074560;28;20299;-68
2021/03/01 04:52:45;;;;;;;29.35;18.20;;;1.40;99.90;;;;;;5072971;28;20204;-67
2021/03/01 04:55:13;;;;;;;31.02;19.15;;;1.40;99.90;;;;;;5074395;28;20639;-69
2021/03/01 04:57:40;;;;;;;29.33;18.00;;;1.60;99.90;;;;;;5072821;28;20568;-68
2021/03/01 05:00:08;;;;;;;25.65;17.52;;;1.80;99.90;;;;;;5074234;28;20297;-69
2021/03/01 05:02:36;;;;;;;24.23;17.17;;;1.80;99.90;;;;;;5072823;28;20181;-68
2021/03/01 05:05:03;;;;;;;33.67;18.15;;;1.70;99.90;;;;;;5074227;28;20169;-68
2021/03/01 05:07:29;;;;;;;26.60;18.85;;;1.80;99.90;;;;;;5074209;28;20184;-68
2021/03/01 05:09:56;;;;;;;34.25;21.15;;;1.90;99.90;;;;;;5074167;28;20296;-68
2021/03/01 05:12:21;;;;;;;31.08;18.30;;;1.90;99.90;;;;;;5074366;28;20538;-69
2021/03/01 05:14:47;;;;;;;30.43;21.43;;;2.00;99.90;;;;;;5074022;28;20264;-68
2021/03/01 05:17:13;;;;;;;40.80;27.03;;;2.10;99.90;;;;;;5073989;28;20177;-68
2021/03/01 05:19:38;;;;;;;34.77;25.77;;;2.10;99.90;;;;;;5073770;28;20208;-67
2021/03/01 05:22:04;;;;;;;39.37;23.70;;;2.20;99.90;;;;;;5074085;28;20177;-67
2021/03/01 05:24:30;;;;;;;30.55;18.80;;;2.00;99.90;;;;;;5072538;28;20205;-68
2021/03/01 05:26:56;;;;;;;30.40;19.30;;;2.10;99.90;;;;;;5074007;28;20176;-68
2021/03/01 05:29:21;;;;;;;42.20;27.03;;;2.00;99.90;;;;;;5072505;28;20666;-68
2021/03/01 05:31:47;;;;;;;38.37;26.13;;;1.80;99.90;;;;;;5071982;28;20174;-68
2021/03/01 05:34:14;;;;;;;37.70;22.57;;;2.00;99.90;;;;;;5072452;28;20566;-68
2021/03/01 05:36:40;;;;;;;36.30;22.38;;;1.70;99.90;;;;;;5072482;28;20513;-68
2021/03/01 05:39:06;;;;;;;31.73;20.23;;;1.80;99.90;;;;;;5073572;28;20251;-67
2021/03/01 05:41:33;;;;;;;26.50;17.17;;;1.80;99.90;;;;;;5073548;28;20477;-68
2021/03/01 05:43:59;;;;;;;23.10;15.52;;;3.00;99.90;;;;;;5072274;28;20705;-68
2021/03/01 05:46:26;;;;;;;30.40;14.50;;;4.00;99.90;;;;;;5072654;28;20178;-68
2021/03/01 05:48:53;;;;;;;24.73;16.60;;;4.70;99.90;;;;;;5072297;28;20499;-68
2021/03/01 05:51:23;;;;;;;24.23;15.10;;;5.00;99.90;;;;;;5073615;28;20211;-68
2021/03/01 05:53:54;;;;;;;23.40;15.82;;;5.40;99.90;;;;;;5073505;28;20201;-68
2021/03/01 05:56:21;;;;;;;24.38;14.90;;;5.70;99.90;;;;;;5073585;28;20521;-68
2021/03/01 05:58:49;;;;;;;28.13;16.30;;;5.90;99.90;;;;;;5073460;28;20538;-68
2021/03/01 06:01:16;;;;;;;30.65;16.83;;;6.00;99.90;;;;;;5073512;28;20288;-69
2021/03/01 06:03:42;;;;;;;24.42;15.52;;;6.20;99.90;;;;;;5073984;28;20638;-68
2021/03/01 06:06:08;;;;;;;29.10;14.97;;;6.30;99.90;;;;;;5073683;28;20185;-68
2021/03/01 06:08:34;;;;;;;28.77;16.17;;;6.40;99.90;;;;;;5073865;28;20438;-68
2021/03/01 06:11:08;;;;;;;24.65;16.20;;;6.40;99.90;;;;;;5073445;28;20173;-69
2021/03/01 06:13:35;;;;;;;28.70;17.13;;;6.60;99.90;;;;;;5073836;28;20234;-68
2021/03/01 06:16:02;;;;;;;34.05;18.67;;;6.40;99.90;;;;;;5073506;28;20577;-69
2021/03/01 06:18:29;;;;;;;31.10;17.17;;;4.60;99.90;;;;;;5073721;28;20189;-67
2021/03/01 06:21:18;;;;;;;26.90;17.15;;;3.80;99.90;;;;;;5073326;28;20787;-69
2021/03/01 06:23:45;;;;;;;28.13;18.35;;;3.40;99.90;;;;;;5072167;28;20229;-68
2021/03/01 06:26:25;;;;;;;29.00;18.58;;;3.20;99.90;;;;;;5073283;28;20307;-68
2021/03/01 06:28:54;;;;;;;31.23;20.17;;;3.20;99.90;;;;;;5073211;28;20198;-68
2021/03/01 06:31:43;;;;;;;31.60;18.42;;;3.00;99.90;;;;;;5073139;28;20219;-69
2021/03/01 06:34:33;;;;;;;31.65;19.05;;;2.80;99.90;;;;;;5073302;28;20629;-68
2021/03/01 06:37:16;;;;;;;28.40;17.35;;;2.80;99.90;;;;;;5073300;28;20528;-67
2021/03/01 06:39:49;;;;;;;29.40;18.75;;;3.00;99.90;;;;;;5072912;28;20208;-68
2021/03/01 06:42:20;;;;;;;34.40;19.98;;;3.10;99.90;;;;;;5073219;28;20239;-68
2021/03/01 06:44:47;;;;;;;26.05;17.95;;;3.10;99.90;;;;;;5076783;28;20193;-68
2021/03/01 06:47:13;;;;;;;28.40;19.85;;;3.10;99.90;;;;;;5077003;28;20669;-69
2021/03/01 06:49:40;;;;;;;28.00;18.50;;;3.20;99.90;;;;;;5074908;28;20585;-68
2021/03/01 06:52:07;;;;;;;33.72;19.95;;;3.30;99.90;;;;;;5097039;28;20583;-68
2021/03/01 06:54:33;;;;;;;31.48;19.05;;;3.30;99.90;;;;;;5096902;28;20191;-68
2021/03/01 06:56:58;;;;;;;31.13;18.73;;;3.40;99.90;;;;;;5097134;28;20267;-68
2021/03/01 06:59:24;;;;;;;35.50;20.30;;;3.50;99.90;;;;;;5061597;28;20485;-69
2021/03/01 07:01:52;;;;;;;32.47;20.17;;;3.60;99.90;;;;;;5062980;28;20228;-68
2021/03/01 07:04:25;;;;;;;28.75;19.38;;;3.70;99.90;;;;;;5063434;28;20511;-69
2021/03/01 07:06:53;;;;;;;26.75;16.40;;;3.80;99.90;;;;;;5063095;28;20708;-67
2021/03/01 07:09:22;;;;;;;31.30;18.98;;;3.90;99.90;;;;;;5062095;28;20666;-69
2021/03/01 07:11:48;;;;;;;29.10;19.25;;;3.90;99.90;;;;;;5063255;28;20181;-67
2021/03/01 07:14:16;;;;;;;29.13;18.13;;;4.10;99.90;;;;;;5062511;28;20201;-67
2021/03/01 07:16:56;;;;;;;32.35;18.98;;;4.30;99.90;;;;;;5061459;28;20185;-67
2021/03/01 07:19:33;;;;;;;26.77;18.33;;;4.50;99.90;;;;;;5061122;28;20376;-68
2021/03/01 07:22:00;;;;;;;32.00;18.58;;;4.60;99.90;;;;;;5062246;28;20747;-68
2021/03/01 07:24:29;;;;;;;31.35;18.85;;;4.80;99.90;;;;;;5061326;28;20209;-68
2021/03/01 07:27:04;;;;;;;30.83;18.40;;;4.90;99.90;;;;;;5061932;28;20188;-68
2021/03/01 07:29:32;;;;;;;29.17;19.05;;;5.20;99.90;;;;;;5060649;28;20204;-68
2021/03/01 07:32:04;;;;;;;30.63;19.38;;;5.50;99.90;;;;;;5062948;28;20633;-68
2021/03/01 07:34:30;;;;;;;26.05;18.15;;;5.60;99.90;;;;;;5063383;28;20679;-68
2021/03/01 07:36:58;;;;;;;32.95;18.95;;;5.70;99.90;;;;;;5061042;28;20196;-69
2021/03/01 07:39:24;;;;;;;27.73;17.60;;;5.70;99.90;;;;;;5056747;28;20201;-69
2021/03/01 07:41:51;;;;;;;27.70;19.52;;;5.90;99.90;;;;;;5061264;28;20245;-68
2021/03/01 07:44:28;;;;;;;31.70;19.80;;;6.00;99.90;;;;;;5061970;28;20251;-69
2021/03/01 07:46:55;;;;;;;26.17;17.70;;;6.30;99.90;;;;;;5058178;28;20191;-68
2021/03/01 07:49:48;;;;;;;28.40;18.02;;;6.40;99.90;;;;;;5058476;28;20215;-68
2021/03/01 07:52:20;;;;;;;26.85;18.25;;;6.70;99.90;;;;;;5056897;28;20203;-68
2021/03/01 07:54:53;;;;;;;23.85;16.98;;;7.00;99.90;;;;;;5058089;28;20578;-68
2021/03/01 07:57:20;;;;;;;30.80;17.67;;;7.20;99.90;;;;;;5059907;28;20794;-69
2021/03/01 07:59:47;;;;;;;27.98;17.45;;;7.50;99.90;;;;;;5059502;28;20201;-69
2021/03/01 08:02:15;;;;;;;28.40;16.63;;;7.50;99.90;;;;;;5060917;28;21542;-68
2021/03/01 08:04:42;;;;;;;26.45;16.95;;;7.80;99.90;;;;;;5060569;28;20205;-68
2021/03/01 08:07:08;;;;;;;23.58;16.08;;;8.00;99.90;;;;;;5062795;28;20181;-68
2021/03/01 08:09:41;;;;;;;25.55;16.17;;;8.20;99.90;;;;;;5058365;28;20201;-68
2021/03/01 08:12:07;;;;;;;26.23;15.05;;;8.40;99.90;;;;;;5063202;28;20192;-68
2021/03/01 08:14:51;;;;;;;22.83;16.65;;;8.60;99.90;;;;;;5061108;28;20266;-70
2021/03/01 08:17:26;;;;;;;21.95;15.43;;;9.00;99.90;;;;;;5058205;28;20195;-68
2021/03/01 08:20:11;;;;;;;25.63;16.65;;;9.80;99.90;;;;;;5059455;28;20208;-68
2021/03/01 08:23:06;;;;;;;24.77;16.30;;;9.80;99.90;;;;;;5062436;28;20728;-69
2021/03/01 08:25:51;;;;;;;21.17;14.98;;;10.30;99.90;;;;;;5061814;28;20641;-70
2021/03/01 08:28:22;;;;;;;21.85;14.50;;;10.80;99.90;;;;;;5059225;28;20193;-70
2021/03/01 08:30:51;;;;;;;19.45;15.10;;;11.90;99.90;;;;;;5061585;28;20673;-71
2021/03/01 08:33:16;;;;;;;22.23;13.77;;;11.90;99.90;;;;;;5059208;28;20216;-69
2021/03/01 08:35:43;;;;;;;17.03;11.47;;;12.60;99.90;;;;;;5060873;28;20691;-69
2021/03/01 08:38:10;;;;;;;20.20;12.03;;;13.20;99.90;;;;;;5060086;28;20292;-69
2021/03/01 08:40:49;;;;;;;17.77;11.33;;;13.50;99.90;;;;;;5060450;28;20577;-69
2021/03/01 08:43:34;;;;;;;14.13;11.03;;;14.20;99.90;;;;;;5061158;28;20873;-68
2021/03/01 08:46:00;;;;;;;11.93;7.77;;;14.60;99.90;;;;;;5059251;28;20956;-69
2021/03/01 08:48:26;;;;;;;13.67;8.90;;;14.90;98.80;;;;;;5059473;28;20458;-69
2021/03/01 08:50:53;;;;;;;13.63;9.83;;;15.50;98.60;;;;;;5058187;28;20447;-69
2021/03/01 08:53:27;;;;;;;17.53;10.60;;;15.80;96.30;;;;;;5061055;28;20536;-71
2021/03/01 08:55:55;;;;;;;15.17;10.50;;;15.30;94.60;;;;;;5060716;28;20436;-69
2021/03/01 08:58:21;;;;;;;12.27;8.40;;;15.70;93.70;;;;;;5057829;28;20449;-70
2021/03/01 09:01:14;;;;;;;14.40;10.20;;;15.20;95.00;;;;;;5058192;28;20832;-71
2021/03/01 09:03:41;;;;;;;15.33;10.00;;;16.10;95.60;;;;;;5056000;28;20468;-70
2021/03/01 09:06:11;;;;;;;15.20;9.00;;;15.30;91.80;;;;;;5058493;28;20458;-75
2021/03/01 09:08:42;;;;;;;14.53;10.00;;;15.60;93.80;;;;;;5056345;28;20461;-71
2021/03/01 09:11:15;;;;;;;9.00;6.37;;;15.10;91.60;;;;;;5060944;28;20473;-68
2021/03/01 09:13:45;;;;;;;11.53;10.07;;;16.10;93.80;;;;;;5060227;28;20884;-70
2021/03/01 09:16:13;;;;;;;14.10;10.60;;;16.60;91.00;;;;;;5058850;28;20967;-71
2021/03/01 09:18:41;;;;;;;14.10;9.87;;;16.50;92.70;;;;;;5058580;28;20488;-68
2021/03/01 09:21:08;;;;;;;14.47;10.77;;;17.20;91.80;;;;;;5057901;28;20448;-70
2021/03/01 09:23:37;;;;;;;12.97;9.53;;;17.50;87.20;;;;;;5060953;28;20536;-68
2021/03/01 09:26:05;;;;;;;12.00;9.50;;;17.50;86.20;;;;;;5060352;28;20454;-69
2021/03/01 09:28:36;;;;;;;10.70;8.13;;;17.70;89.50;;;;;;5058936;28;20532;-72
2021/03/01 09:31:09;;;;;;;10.03;9.00;;;18.50;84.60;;;;;;5059759;28;20426;-70
2021/03/01 09:33:36;;;;;;;12.00;9.17;;;19.30;85.70;;;;;;5058874;28;21098;-70
2021/03/01 09:36:03;;;;;;;12.87;9.93;;;18.60;83.70;;;;;;5059029;28;20464;-68
2021/03/01 09:38:29;;;;;;;11.30;8.40;;;18.30;80.20;;;;;;5057593;28;20457;-70
2021/03/01 09:40:57;;;;;;;12.00;8.73;;;18.10;83.60;;;;;;5058407;28;20493;-70
2021/03/01 09:43:23;;;;;;;18.17;12.60;;;17.50;80.10;;;;;;5060378;28;20849;-70
2021/03/01 09:45:50;;;;;;;11.90;8.47;;;17.60;85.60;;;;;;5055496;28;20430;-68
2021/03/01 09:48:16;;;;;;;13.63;9.97;;;17.40;83.80;;;;;;5057667;28;20789;-69
2021/03/01 09:50:42;;;;;;;11.53;9.07;;;16.60;85.40;;;;;;5086902;28;20424;-72
2021/03/01 09:53:08;;;;;;;12.90;8.73;;;17.10;86.80;;;;;;5093277;28;20452;-68
2021/03/01 09:55:34;;;;;;;10.33;8.03;;;17.00;84.30;;;;;;5062903;28;20898;-66
2021/03/01 09:58:00;;;;;;;12.30;9.73;;;16.70;85.60;;;;;;5060991;28;20458;-67
2021/03/01 10:00:29;;;;;;;11.13;8.57;;;15.80;87.00;;;;;;5057961;28;20972;-69
2021/03/01 10:03:01;;;;;;;11.80;8.70;;;15.60;84.10;;;;;;5057700;28;20330;-67
2021/03/01 10:05:29;;;;;;;11.40;8.77;;;15.20;84.90;;;;;;5058305;28;20806;-69
2021/03/01 10:08:03;;;;;;;14.03;10.40;;;15.80;89.60;;;;;;5056955;28;20457;-72
2021/03/01 10:10:37;;;;;;;10.97;8.30;;;15.90;84.80;;;;;;5057155;28;20429;-74
2021/03/01 10:13:04;;;;;;;14.07;10.27;;;15.90;84.50;;;;;;5059499;28;20491;-68
2021/03/01 10:15:42;;;;;;;13.33;10.10;;;16.00;87.70;;;;;;5058348;28;20516;-70
2021/03/01 10:18:10;;;;;;;13.93;10.03;;;16.40;88.30;;;;;;5056268;28;20485;-73
2021/03/01 10:21:03;;;;;;;12.53;10.83;;;16.20;87.00;;;;;;5062593;28;20465;-71
2021/03/01 10:23:34;;;;;;;15.20;10.87;;;16.20;86.70;;;;;;5063657;28;20914;-70
2021/03/01 10:26:14;;;;;;;11.90;8.07;;;15.60;88.50;;;;;;5061263;28;20429;-70
2021/03/01 10:28:42;;;;;;;9.20;6.43;;;16.20;89.40;;;;;;5064849;28;20502;-70
2021/03/01 10:31:14;;;;;;;11.10;8.87;;;15.60;87.20;;;;;;5063138;28;20417;-68
2021/03/01 10:34:01;;;;;;;11.70;8.30;;;15.40;87.60;;;;;;5062312;28;20868;-71
2021/03/01 10:36:40;;;;;;;11.47;8.23;;;15.00;90.00;;;;;;5062832;28;20919;-72
2021/03/01 10:39:09;;;;;;;11.37;9.53;;;15.20;90.90;;;;;;5090520;28;20536;-71
2021/03/01 10:41:46;;;;;;;12.63;9.73;;;15.30;89.40;;;;;;5096237;28;20966;-72
2021/03/01 10:44:13;;;;;;;14.53;9.47;;;15.40;90.20;;;;;;5075982;28;20471;-71
2021/03/01 10:46:44;;;;;;;9.47;7.10;;;15.90;91.20;;;;;;5086486;28;21002;-71
2021/03/01 10:49:25;;;;;;;11.40;7.93;;;15.60;90.50;;;;;;5085057;28;20471;-70
2021/03/01 10:51:53;;;;;;;14.27;9.90;;;15.80;88.10;;;;;;5093834;28;20432;-70
2021/03/01 10:54:20;;;;;;;10.30;8.47;;;15.80;88.20;;;;;;5094615;28;20953;-69
2021/03/01 10:56:45;;;;;;;8.67;7.03;;;15.70;91.90;;;;;;5095106;28;20516;-71
2021/03/01 10:59:11;;;;;;;8.57;7.27;;;15.20;87.40;;;;;;5086813;28;20523;-68
2021/03/01 11:01:43;;;;;;;10.50;6.80;;;15.30;91.30;;;;;;5085288;28;20225;-71
2021/03/01 11:04:10;;;;;;;9.30;6.50;;;15.40;91.10;;;;;;5070629;28;20459;-68
2021/03/01 11:06:37;;;;;;;12.40;7.63;;;15.10;90.70;;;;;;5090030;28;20416;-67
2021/03/01 11:09:06;;;;;;;10.23;7.60;;;14.70;90.90;;;;;;5094389;28;20424;-67
2021/03/01 11:11:33;;;;;;;9.73;7.40;;;15.10;92.40;;;;;;5077194;28;20861;-67
2021/03/01 11:13:59;;;;;;;10.00;7.30;;;15.40;96.00;;;;;;5072890;28;20434;-69
2021/03/01 11:16:25;;;;;;;8.40;7.20;;;15.20;90.90;;;;;;5075158;28;20417;-67
2021/03/01 11:18:51;;;;;;;10.13;8.03;;;15.10;93.50;;;;;;5086122;28;20662;-67
2021/03/01 11:21:16;;;;;;;9.60;7.80;;;15.60;94.00;;;;;;5090108;28;20483;-67
2021/03/01 11:23:43;;;;;;;9.83;7.43;;;15.80;92.80;;;;;;5087964;28;20661;-68
2021/03/01 11:26:09;;;;;;;8.27;6.53;;;15.60;91.40;;;;;;5090181;28;20184;-68
2021/03/01 11:28:35;;;;;;;10.33;7.27;;;15.90;93.70;;;;;;5087209;28;20454;-68
2021/03/01 11:31:01;;;;;;;10.33;8.57;;;16.00;94.50;;;;;;5075056;28;20404;-68
2021/03/01 11:33:26;;;;;;;10.10;7.80;;;15.60;90.00;;;;;;5076200;28;20436;-68
2021/03/01 11:35:54;;;;;;;10.17;7.30;;;15.80;92.60;;;;;;5075967;28;20274;-68
2021/03/01 11:38:22;;;;;;;10.97;7.60;;;15.90;92.30;;;;;;5072593;28;20197;-67
2021/03/01 11:40:48;;;;;;;10.43;7.70;;;15.60;88.10;;;;;;5087085;28;20466;-67
2021/03/01 11:43:14;;;;;;;11.87;8.10;;;15.60;90.30;;;;;;5095124;28;20449;-68
2021/03/01 11:45:39;;;;;;;9.83;8.60;;;15.80;90.00;;;;;;5095604;28;20602;-68
2021/03/01 11:48:06;;;;;;;10.27;8.27;;;15.80;89.90;;;;;;5082931;28;20212;-67
2021/03/01 11:50:31;;;;;;;10.73;7.87;;;16.00;90.90;;;;;;5079247;28;20181;-67
2021/03/01 11:52:57;;;;;;;8.57;7.67;;;16.00;90.10;;;;;;5080444;28;20505;-67
2021/03/01 11:55:23;;;;;;;8.13;7.00;;;15.90;87.40;;;;;;5076772;28;20593;-68
2021/03/01 11:57:48;;;;;;;8.87;7.50;;;15.70;86.50;;;;;;5086630;28;20723;-67
2021/03/01 12:00:16;;;;;;;9.57;8.00;;;15.70;86.20;;;;;;5091871;28;20240;-68
2021/03/01 12:02:42;;;;;;;9.20;8.00;;;15.90;85.60;;;;;;5088292;28;20188;-67
2021/03/01 12:05:08;;;;;;;10.20;8.67;;;15.90;84.80;;;;;;5084118;28;20423;-68
2021/03/01 12:07:35;;;;;;;11.33;9.50;;;15.50;85.30;;;;;;5088853;28;20942;-67
2021/03/01 12:10:02;;;;;;;12.57;9.67;;;15.50;85.50;;;;;;5094228;28;20787;-68
2021/03/01 12:12:28;;;;;;;12.00;9.60;;;15.50;84.50;;;;;;5088837;28;20426;-67
2021/03/01 12:14:53;;;;;;;9.53;7.57;;;14.60;85.90;;;;;;5094487;28;20453;-67
2021/03/01 12:17:20;;;;;;;9.47;7.67;;;14.70;86.20;;;;;;5088661;28;20774;-67
2021/03/01 12:19:46;;;;;;;9.50;8.50;;;14.90;86.00;;;;;;5090850;28;20582;-67
2021/03/01 12:22:12;;;;;;;7.23;5.10;;;15.10;86.20;;;;;;5094664;28;20476;-68
2021/03/01 12:24:37;;;;;;;7.37;5.93;;;15.40;89.30;;;;;;5083134;28;20677;-69
2021/03/01 12:27:03;;;;;;;10.40;6.50;;;15.30;81.70;;;;;;5077091;28;20195;-67
2021/03/01 12:29:29;;;;;;;9.77;8.03;;;15.70;89.20;;;;;;5086129;28;20572;-67
2021/03/01 12:31:54;;;;;;;8.93;7.60;;;15.20;85.20;;;;;;5079070;28;20188;-67
2021/03/01 12:34:20;;;;;;;11.70;8.80;;;14.70;87.60;;;;;;5088415;28;20208;-66
2021/03/01 12:36:46;;;;;;;9.57;7.60;;;14.50;87.40;;;;;;5091610;28;20180;-67
2021/03/01 12:39:12;;;;;;;8.10;6.33;;;15.00;86.20;;;;;;5094276;28;20568;-67
2021/03/01 12:41:37;;;;;;;6.60;5.70;;;15.40;86.70;;;;;;5093896;28;20235;-67
2021/03/01 12:44:03;;;;;;;8.20;6.77;;;15.60;86.70;;;;;;5094666;28;20232;-67
2021/03/01 12:46:29;;;;;;;9.03;6.57;;;15.30;85.30;;;;;;5093455;28;20184;-67